📊 Raw Sensor Data

Showing records 47601 to 47625 of 85,088 total

ID Distance (ft) Battery V Battery A Int Temp (°F) Int Humid (%) Ext Temp (°F) Solar V RSSI SNR Time Stamp
37500 -- 3.84 0 62 39 68 5.10 -82 8 04/11/2025 08:45 AM
37499 -- 4.07 118 59 39 62 4.50 -83 8 04/11/2025 08:30 AM
37498 -- 3.88 42 59 38 63 4.50 -83 8 04/11/2025 08:15 AM
37497 -- 3.83 0 57 39 64 5.10 -82 8 04/11/2025 08:00 AM
37496 -- 3.93 36 54 40 57 4.50 -82 8 04/11/2025 07:45 AM
37495 -- 3.86 10 54 40 55 4.50 -82 8 04/11/2025 07:30 AM
37494 -- 3.78 0 53 40 55 4.50 -81 8 04/11/2025 07:15 AM
37493 -- 3.77 -7 53 41 53 4.50 -83 8 04/11/2025 07:00 AM
37492 -- 3.77 -10 53 41 54 4.10 -81 9 04/11/2025 06:45 AM
37491 -- 3.78 -5 53 40 54 1.50 -81 7 04/11/2025 06:30 AM
37490 -- 3.78 -5 52 40 54 0.00 -77 7 04/11/2025 06:00 AM
37489 -- 3.78 -5 51 40 53 0.00 -80 7 04/11/2025 05:45 AM
37488 -- 3.78 -5 50 41 52 0.00 -79 8 04/11/2025 05:31 AM
37487 15.5 3.78 -5 49 41 51 0.00 -81 8 04/11/2025 05:15 AM
37486 15.5 3.83 -5 49 41 50 0.00 -81 7 04/11/2025 05:00 AM
37485 15.5 3.78 -5 49 41 50 0.00 -81 7 04/11/2025 04:45 AM
37484 15.5 3.83 -5 49 40 51 0.00 -81 8 04/11/2025 04:30 AM
37483 15.5 3.78 -5 48 40 51 0.00 -81 8 04/11/2025 04:15 AM
37482 15.5 3.78 -5 48 41 50 0.00 -81 8 04/11/2025 04:00 AM
37481 15.5 3.78 -5 47 41 49 0.00 -81 9 04/11/2025 03:45 AM
37480 15.5 3.78 -5 47 41 48 0.00 -82 8 04/11/2025 03:30 AM
37479 15.5 3.78 -5 46 41 47 0.00 -81 7 04/11/2025 03:15 AM
37478 15.5 3.78 -5 46 41 47 0.00 -81 7 04/11/2025 03:00 AM
37477 -- 3.84 -5 47 41 47 0.00 -81 8 04/11/2025 02:46 AM
37476 -- 3.78 -5 47 41 49 0.00 -81 8 04/11/2025 02:30 AM